This is the latest recevied weather packets stored in our database for station/object FW1079. If no packets are shown the sender has not sent any weather packets the latest 10 day(s).
| Time | Temp. | Humidity | Pressure | Rain* | Wind** | Luminosity | Snow |
|---|---|---|---|---|---|---|---|
| 1777623255 | 13.89° C | 51% | 1026.1 hPa | 0 mm | - | - | - |
| 1777622956 | 13.89° C | 52% | 1026.1 hPa | 0 mm | - | - | - |
| 1777618462 | 11.67° C | 73% | 1025.1 hPa | 0 mm | - | - | - |
| 1777617255 | 11.11° C | 78% | 1025.1 hPa | 0 mm | - | - | - |
| 1777616056 | 10° C | 83% | 1025.1 hPa | 0 mm | - | - | - |
| 1777613655 | 8.33° C | 86% | 1025.1 hPa | 0 mm | - | - | - |
| 1777613055 | 7.78° C | 87% | 1025.1 hPa | 0 mm | - | - | - |
| 1777612455 | 7.78° C | 87% | 1025.1 hPa | 0 mm | - | - | - |
| 1777610958 | 6.67° C | 87% | 1025.1 hPa | 0 mm | - | - | - |
| 1777610655 | 6.67° C | 87% | 1025.1 hPa | 0 mm | - | - | - |
| 1777606456 | 7.78° C | 87% | 1025.1 hPa | 0 mm | - | - | - |
| 1777604656 | 8.33° C | 86% | 1024.1 hPa | 0 mm | - | - | - |
| 1777604055 | 8.33° C | 86% | 1024.1 hPa | 0 mm | - | - | - |
| 1777603755 | 8.33° C | 86% | 1024.1 hPa | 0 mm | - | - | - |
| 1777601056 | 8.89° C | 86% | 1024.1 hPa | 0 mm | - | - | - |
| 1777598355 | 8.33° C | 86% | 1024.1 hPa | 0 mm | - | - | - |
| 1777597755 | 8.33° C | 86% | 1024.1 hPa | 0 mm | - | - | - |
| 1777597155 | 8.33° C | 86% | 1024.1 hPa | 0 mm | - | - | - |
| 1777596255 | 7.78° C | 86% | 1024.1 hPa | 0 mm | - | - | - |
| 1777595355 | 8.33° C | 86% | 1025.1 hPa | 0 mm | - | - | - |
| 1777593255 | 8.33° C | 85% | 1024.1 hPa | 0 mm | - | - | - |
| 1777592958 | 7.78° C | 86% | 1024.1 hPa | 0 mm | - | - | - |
| 1777591455 | 7.22° C | 86% | 1025.1 hPa | 0 mm | - | - | - |
| 1777589654 | 7.22° C | 85% | 1024.1 hPa | 0 mm | - | - | - |
| 1777587555 | 7.78° C | 85% | 1024.1 hPa | 0 mm | - | - | - |
* Rain latest hour (hover to see other rain measurements)
** Current wind speed in m/s (hover to see current wind gust speed)